YRDMP LRIA-LRIA
Flight info
| Callsign | YRDMP |
|---|---|
| Flight time | 0h 13m |
| Altitude | 4000 |
| Route | ABOLO |
| Aircraft | C172/L-SFG/C |
Departure
| Time | 2026-04-30 19:06 |
|---|---|
| Airport | Iaşi International Airport (LRIA) |
Arrival
| Time | 2026-04-30 19:19 |
|---|---|
| Airport | Iaşi International Airport (LRIA) |
| Time | Latitude | Longitude | Altitude | Speed | Heading |
|---|---|---|---|---|---|
| 2026-04-30 18:46 | 47.17756 | 27.61810 | 371 ft | 0 kts | 274° |
| 2026-04-30 18:55 | 47.17755 | 27.61828 | 371 ft | 2 kts | 273° |
| 2026-04-30 18:55 | 47.17754 | 27.61853 | 370 ft | 2 kts | 272° |
| 2026-04-30 18:56 | 47.17754 | 27.61901 | 370 ft | 2 kts | 266° |
| 2026-04-30 18:56 | 47.17756 | 27.61925 | 369 ft | 2 kts | 256° |
| 2026-04-30 18:56 | 47.17762 | 27.61945 | 369 ft | 1 kts | 243° |
| 2026-04-30 18:57 | 47.17762 | 27.61948 | 369 ft | 0 kts | 244° |
| 2026-04-30 19:00 | 47.17752 | 27.61930 | 369 ft | 9 kts | 212° |
| 2026-04-30 19:00 | 47.17639 | 27.61989 | 365 ft | 26 kts | 158° |
| 2026-04-30 19:00 | 47.17294 | 27.62278 | 351 ft | 29 kts | 150° |
| 2026-04-30 19:01 | 47.17302 | 27.62478 | 348 ft | 0 kts | 58° |
| 2026-04-30 19:03 | 47.17315 | 27.62511 | 351 ft | 12 kts | 62° |
| 2026-04-30 19:04 | 47.17422 | 27.62625 | 353 ft | 0 kts | 330° |
| 2026-04-30 19:05 | 47.17930 | 27.62176 | 370 ft | 78 kts | 329° |
| 2026-04-30 19:05 | 47.18952 | 27.61220 | 738 ft | 80 kts | 331° |
| 2026-04-30 19:06 | 47.19848 | 27.60143 | 1200 ft | 78 kts | 317° |
| 2026-04-30 19:06 | 47.20264 | 27.59873 | 1470 ft | 72 kts | 45° |
| 2026-04-30 19:06 | 47.20168 | 27.61797 | 1627 ft | 113 kts | 102° |
| 2026-04-30 19:07 | 47.19026 | 27.63547 | 1830 ft | 123 kts | 146° |
| 2026-04-30 19:07 | 47.18307 | 27.64137 | 1960 ft | 118 kts | 146° |
| 2026-04-30 19:08 | 47.16612 | 27.64583 | 1630 ft | 116 kts | 170° |
| 2026-04-30 19:08 | 47.15063 | 27.64955 | 1853 ft | 106 kts | 206° |
| 2026-04-30 19:08 | 47.15145 | 27.64267 | 1639 ft | 101 kts | 346° |
| 2026-04-30 19:09 | 47.15227 | 27.64234 | 1570 ft | 107 kts | 349° |
| 2026-04-30 19:09 | 47.16008 | 27.63851 | 933 ft | 115 kts | 330° |
| 2026-04-30 19:09 | 47.16681 | 27.63258 | 533 ft | 110 kts | 332° |
| 2026-04-30 19:10 | 47.17663 | 27.62400 | 377 ft | 64 kts | 330° |
| 2026-04-30 19:10 | 47.18279 | 27.61845 | 468 ft | 54 kts | 325° |
| 2026-04-30 19:11 | 47.18564 | 27.61526 | 661 ft | 51 kts | 325° |
| 2026-04-30 19:11 | 47.19317 | 27.60886 | 918 ft | 65 kts | 4° |
| 2026-04-30 19:11 | 47.19441 | 27.61455 | 1050 ft | 82 kts | 88° |
| 2026-04-30 19:12 | 47.19403 | 27.62347 | 1261 ft | 88 kts | 92° |
| 2026-04-30 19:12 | 47.19263 | 27.62978 | 1280 ft | 109 kts | 117° |
| 2026-04-30 19:12 | 47.18785 | 27.63685 | 1797 ft | 81 kts | 130° |
| 2026-04-30 19:13 | 47.17997 | 27.64993 | 1169 ft | 145 kts | 105° |
| 2026-04-30 19:13 | 47.16738 | 27.66503 | 1568 ft | 72 kts | 154° |
| 2026-04-30 19:13 | 47.16156 | 27.66744 | 1456 ft | 105 kts | 175° |
| 2026-04-30 19:14 | 47.15609 | 27.66177 | 1535 ft | 102 kts | 238° |
| 2026-04-30 19:14 | 47.15184 | 27.65159 | 1360 ft | 112 kts | 273° |
| 2026-04-30 19:14 | 47.15571 | 27.64300 | 1198 ft | 115 kts | 323° |
| 2026-04-30 19:14 | 47.16242 | 27.63635 | 809 ft | 114 kts | 332° |
| 2026-04-30 19:15 | 47.16902 | 27.63058 | 515 ft | 107 kts | 333° |
| 2026-04-30 19:15 | 47.17861 | 27.62228 | 375 ft | 51 kts | 332° |
| 2026-04-30 19:15 | 47.18148 | 27.61974 | 404 ft | 54 kts | 330° |
| 2026-04-30 19:16 | 47.18443 | 27.61669 | 596 ft | 51 kts | 328° |
| 2026-04-30 19:16 | 47.18712 | 27.61343 | 765 ft | 52 kts | 326° |
| 2026-04-30 19:16 | 47.18994 | 27.62081 | 982 ft | 98 kts | 133° |
| 2026-04-30 19:17 | 47.18477 | 27.62719 | 1039 ft | 102 kts | 141° |
| 2026-04-30 19:17 | 47.17260 | 27.63754 | 1344 ft | 123 kts | 148° |
| 2026-04-30 19:17 | 47.16529 | 27.64357 | 1504 ft | 114 kts | 147° |
| 2026-04-30 19:18 | 47.15379 | 27.64696 | 1554 ft | 86 kts | 269° |
| 2026-04-30 19:18 | 47.16066 | 27.63783 | 920 ft | 132 kts | 336° |
| 2026-04-30 19:18 | 47.16845 | 27.63125 | 531 ft | 119 kts | 331° |
| 2026-04-30 19:19 | 47.17413 | 27.62628 | 391 ft | 76 kts | 330° |
| 2026-04-30 19:19 | 47.17772 | 27.62308 | 365 ft | 46 kts | 330° |